Date,TemperatureHighF,TemperatureAvgF,TemperatureLowF,DewpointHighF,DewpointAvgF,DewpointLowF,HumidityHigh,HumidityAvg,HumidityLow,PressureMaxIn,PressureMinIn,WindSpeedMaxMPH,WindSpeedAvgMPH,GustSpeedMaxMPH,PrecipitationSumIn
2013-1-1,52,46,40,38,34,28,83,64,47,30.26,30.19,13,4,19,0.00
2013-1-2,55,48,42,35,30,27,60,51,41,30.23,30.12,13,4,16,0.00
2013-1-3,56,47,40,42,36,29,78,66,49,30.25,30.15,7,3,13,0.00
2013-1-4,57,49,39,38,35,32,87,60,44,30.27,30.16,10,3,14,0.00
2013-1-5,52,47,42,47,43,38,95,86,75,30.25,30.05,9,2,16,0.41
2013-1-6,52,46,43,45,43,41,95,90,77,30.18,30.05,11,2,17,0.01
2013-1-7,59,49,42,48,44,40,95,85,67,30.25,30.14,5,2,7,0.01
2013-1-8,61,52,45,49,45,42,93,78,63,30.23,30.11,9,2,12,0.00
2013-1-9,51,47,43,50,42,36,94,83,67,30.13,29.98,11,3,20,0.00
2013-1-10,51,44,39,37,35,32,85,71,50,30.18,30.07,13,3,17,0.00
2013-1-11,52,44,39,40,36,32,91,74,61,30.24,30.11,10,3,15,0.00
2013-1-12,50,43,36,37,29,23,87,60,36,30.24,30.14,9,2,11,0.00
2013-1-13,50,42,33,33,24,16,73,50,32,30.26,30.17,10,2,15,0.00
2013-1-14,52,43,35,27,20,15,58,42,30,30.39,30.21,14,3,16,0.00
2013-1-15,52,44,36,31,27,24,74,54,38,30.47,30.39,7,2,14,0.00
2013-1-16,57,46,36,37,31,25,84,58,38,30.43,30.24,10,2,13,0.00
2013-1-17,63,54,44,40,30,23,66,42,29,30.25,30.12,17,4,18,0.00
2013-1-18,64,55,48,37,31,22,64,42,28,30.21,30.11,12,4,16,0.00
2013-1-19,62,55,44,36,28,22,62,36,27,30.23,30.13,13,4,17,0.00
2013-1-20,63,56,44,34,27,20,67,34,25,30.21,30.11,9,4,17,0.00
2013-1-21,64,54,47,39,33,23,63,46,34,30.16,30.06,10,4,19,0.00
2013-1-22,63,55,50,44,40,36,71,58,46,30.09,29.98,12,4,15,0.00
2013-1-23,56,52,49,51,46,41,97,81,59,30.07,29.93,10,2,19,0.25
2013-1-24,59,54,49,52,50,48,95,87,78,30.18,30.04,9,3,18,0.00
2013-1-25,65,57,51,56,52,50,95,84,68,30.18,30.02,8,2,12,0.00
2013-1-26,57,51,46,51,44,38,95,78,51,30.07,29.97,13,4,20,0.00
2013-1-27,55,47,41,40,38,30,84,71,39,30.16,30.06,7,2,13,0.00
2013-1-28,58,48,41,44,40,36,87,73,51,30.27,30.16,9,3,15,0.00
2013-1-29,58,50,43,44,41,38,84,73,53,30.35,30.25,8,2,11,0.00
2013-1-30,64,54,45,48,44,40,84,70,50,30.33,30.24,6,2,10,0.00
2013-1-31,66,55,48,48,44,41,81,69,53,30.27,30.15,7,2,11,0.00